Time;durP1;ratioP1;P1;durP2;ratioP2;P2;SDS_P1;SDS_P2;PMS_P1;PMS_P2;Temp;Humidity;BMP_temperature;BMP_pressure;BME280_temperature;BME280_humidity;BME280_pressure;Samples;Min_cycle;Max_cycle;Signal;HPM_P1;HPM_P2
2023/01/19 00:01:23;;;;;;;;;;;;;;;4.72;100.00;96695.38;5119133;28;19959;-61
2023/01/19 00:03:49;;;;;;;;;;;;;;;4.88;100.00;96697.84;5121056;28;19928;-61
2023/01/19 00:06:16;;;;;;;;;;;;;;;4.98;100.00;96694.47;5125752;28;19924;-59
2023/01/19 00:08:44;;;;;;;;;;;;;;;5.11;100.00;96699.28;5119740;28;19985;-61
2023/01/19 00:11:11;;;;;;;;;;;;;;;5.19;100.00;96701.44;5122180;28;19950;-61
2023/01/19 00:13:38;;;;;;;;;;;;;;;5.19;100.00;96692.72;5121586;28;20085;-61
2023/01/19 00:16:04;;;;;;;;;;;;;;;4.63;100.00;96697.69;5118596;28;20352;-61
2023/01/19 00:18:32;;;;;;;;;;;;;;;4.69;100.00;96709.09;5118508;28;20404;-60
2023/01/19 00:20:59;;;;;;;;;;;;;;;4.79;100.00;96711.81;5121999;28;19935;-60
2023/01/19 00:23:25;;;;;;;;;;;;;;;4.86;100.00;96712.38;5121901;28;20022;-62
2023/01/19 00:25:51;;;;;;;;;;;;;;;4.76;100.00;96717.63;5119529;28;19919;-61
2023/01/19 00:28:19;;;;;;;;;;;;;;;4.83;100.00;96718.97;5118422;28;19928;-61
2023/01/19 00:30:45;;;;;;;;;;;;;;;4.88;100.00;96720.88;5119685;28;19983;-61
2023/01/19 00:33:13;;;;;;;;;;;;;;;4.97;100.00;96727.25;5121789;28;19955;-61
2023/01/19 00:35:42;;;;;;;;;;;;;;;4.98;100.00;96726.22;5122261;27;19927;-61
2023/01/19 00:38:08;;;;;;;;;;;;;;;4.98;100.00;96730.72;5118199;28;19954;-60
2023/01/19 00:40:35;;;;;;;;;;;;;;;4.98;100.00;96736.00;5118013;28;19966;-61
2023/01/19 00:43:02;;;;;;;;;;;;;;;5.00;100.00;96731.25;5121891;28;19974;-61
2023/01/19 00:45:29;;;;;;;;;;;;;;;5.04;100.00;96735.78;5121012;28;19937;-61
2023/01/19 00:47:56;;;;;;;;;;;;;;;5.08;100.00;96736.84;5118526;28;19980;-61
2023/01/19 00:50:23;;;;;;;;;;;;;;;5.10;100.00;96740.03;5117724;28;19924;-61
2023/01/19 00:52:52;;;;;;;;;;;;;;;5.05;100.00;96742.63;5119568;28;19995;-61
2023/01/19 00:55:18;;;;;;;;;;;;;;;5.00;100.00;96747.91;5121126;28;19959;-61
2023/01/19 00:57:44;;;;;;;;;;;;;;;4.81;100.00;96752.00;5119798;28;19995;-61
2023/01/19 01:00:13;;;;;;;;;;;;;;;4.42;100.00;96758.59;5117825;28;19956;-61
2023/01/19 01:02:39;;;;;;;;;;;;;;;4.61;100.00;96762.47;5118134;28;19924;-61
2023/01/19 01:05:06;;;;;;;;;;;;;;;4.78;100.00;96765.75;5122617;28;19979;-61
2023/01/19 01:07:39;;;;;;;;;;;;;;;4.90;100.00;96766.34;5102548;28;19927;-61
2023/01/19 01:10:08;;;;;;;;;;;;;;;5.02;100.00;96768.81;5108762;28;19977;-60
2023/01/19 01:12:34;;;;;;;;;;;;;;;5.10;100.00;96777.09;5108673;28;19924;-60
2023/01/19 01:15:01;;;;;;;;;;;;;;;5.19;100.00;96787.97;5112379;28;19958;-60
2023/01/19 01:17:27;;;;;;;;;;;;;;;5.22;100.00;96792.75;5120799;28;20015;-60
2023/01/19 01:19:53;;;;;;;;;;;;;;;5.23;100.00;96797.03;5118287;28;19944;-60
2023/01/19 01:22:20;;;;;;;;;;;;;;;5.29;100.00;96790.69;5117318;28;19978;-61
2023/01/19 01:24:46;;;;;;;;;;;;;;;5.30;100.00;96790.44;5118966;28;19928;-61
2023/01/19 01:27:14;;;;;;;;;;;;;;;5.30;100.00;96790.44;5120948;28;19974;-61
2023/01/19 01:29:45;;;;;;;;;;;;;;;5.27;100.00;96790.13;5120113;28;20248;-60
2023/01/19 01:32:12;;;;;;;;;;;;;;;5.18;100.00;96799.63;5117204;28;19935;-61
2023/01/19 01:34:38;;;;;;;;;;;;;;;5.27;100.00;96806.03;5119261;27;19928;-61
2023/01/19 01:37:07;;;;;;;;;;;;;;;5.23;100.00;96805.72;5121056;28;19959;-61
2023/01/19 01:39:33;;;;;;;;;;;;;;;5.10;100.00;96818.63;5120870;28;19928;-60
2023/01/19 01:41:59;;;;;;;;;;;;;;;5.08;100.00;96821.50;5117145;28;19966;-61
2023/01/19 01:44:50;;;;;;;;;;;;;;;5.13;100.00;96818.91;5116886;28;19955;-60
2023/01/19 01:47:22;;;;;;;;;;;;;;;5.13;100.00;96821.56;5116943;28;19950;-60
2023/01/19 01:49:50;;;;;;;;;;;;;;;5.12;100.00;96827.91;5118856;28;20422;-60
2023/01/19 01:52:17;;;;;;;;;;;;;;;5.13;100.00;96828.69;5120590;28;19924;-60
2023/01/19 01:54:43;;;;;;;;;;;;;;;4.95;100.00;96827.25;5119050;28;19963;-60
2023/01/19 01:57:11;;;;;;;;;;;;;;;5.18;100.00;96826.88;5119486;28;19932;-60
2023/01/19 01:59:40;;;;;;;;;;;;;;;5.21;100.00;96838.81;5121040;28;19931;-60
2023/01/19 02:04:56;;;;;;;;;;;;;;;4.99;100.00;96832.81;5124844;27;19931;-60
2023/01/19 02:15:41;;;;;;;;;;;;;;;5.19;100.00;96843.56;5123004;28;19943;-61
2023/01/19 02:18:09;;;;;;;;;;;;;;;5.25;100.00;96838.06;5120636;28;19983;-61
2023/01/19 02:20:37;;;;;;;;;;;;;;;5.15;100.00;96845.91;5120420;28;19927;-60
2023/01/19 02:23:07;;;;;;;;;;;;;;;5.15;100.00;96837.97;5123924;28;19924;-60
2023/01/19 02:25:35;;;;;;;;;;;;;;;5.19;100.00;96838.28;5123966;28;20033;-61
2023/01/19 02:28:02;;;;;;;;;;;;;;;5.16;100.00;96839.56;5111831;28;19960;-60
2023/01/19 02:30:28;;;;;;;;;;;;;;;5.21;100.00;96836.94;5111501;28;19953;-60
2023/01/19 02:32:55;;;;;;;;;;;;;;;5.09;100.00;96841.63;5111225;28;20016;-60
2023/01/19 02:35:22;;;;;;;;;;;;;;;5.16;100.00;96838.78;5101539;28;19924;-60
2023/01/19 02:37:48;;;;;;;;;;;;;;;5.18;100.00;96832.16;5111435;28;20019;-60
2023/01/19 02:40:18;;;;;;;;;;;;;;;5.24;100.00;96846.22;5111401;28;19924;-60
2023/01/19 02:42:48;;;;;;;;;;;;;;;5.25;100.00;96845.19;5119696;28;19935;-60
2023/01/19 02:45:17;;;;;;;;;;;;;;;5.22;100.00;96851.78;5120005;28;19995;-60
2023/01/19 02:47:44;;;;;;;;;;;;;;;5.26;100.00;96865.31;5120904;28;19920;-60
2023/01/19 02:50:29;;;;;;;;;;;;;;;5.29;100.00;96860.28;5123563;28;19962;-60
2023/01/19 02:52:59;;;;;;;;;;;;;;;5.33;100.00;96856.09;5120290;28;19928;-60
2023/01/19 02:55:28;;;;;;;;;;;;;;;5.22;100.00;96854.44;5119474;28;19947;-60
2023/01/19 02:58:03;;;;;;;;;;;;;;;5.28;100.00;96853.41;5122256;28;19924;-60
2023/01/19 03:00:34;;;;;;;;;;;;;;;5.27;100.00;96859.75;5122931;28;19963;-61
2023/01/19 03:03:10;;;;;;;;;;;;;;;5.29;100.00;96864.81;5110995;28;19931;-60
2023/01/19 03:05:48;;;;;;;;;;;;;;;5.21;100.00;96858.13;5120799;27;19920;-61
2023/01/19 03:08:17;;;;;;;;;;;;;;;5.23;100.00;96860.53;5119221;28;19956;-60
2023/01/19 03:10:47;;;;;;;;;;;;;;;5.22;100.00;96841.22;5119991;28;19931;-61
2023/01/19 03:13:18;;;;;;;;;;;;;;;5.33;100.00;96853.44;5122959;28;19965;-61
2023/01/19 03:15:49;;;;;;;;;;;;;;;5.31;100.00;96855.56;5121184;28;19974;-61
2023/01/19 03:18:19;;;;;;;;;;;;;;;5.36;100.00;96857.44;5101164;28;20321;-61
2023/01/19 03:20:47;;;;;;;;;;;;;;;5.24;100.00;96864.75;5120609;28;19963;-61
2023/01/19 03:23:15;;;;;;;;;;;;;;;5.35;100.00;96859.28;5122877;28;19987;-61
2023/01/19 03:25:43;;;;;;;;;;;;;;;5.39;100.00;96856.91;5121597;28;19979;-61
2023/01/19 03:28:09;;;;;;;;;;;;;;;5.34;100.00;96852.41;5119231;28;19987;-61
2023/01/19 03:30:39;;;;;;;;;;;;;;;5.36;100.00;96852.94;5119173;28;19988;-61
2023/01/19 03:33:08;;;;;;;;;;;;;;;5.39;100.00;96856.91;5122820;28;20022;-61
2023/01/19 03:35:36;;;;;;;;;;;;;;;5.33;100.00;96855.28;5114881;28;20532;-61
2023/01/19 03:38:05;;;;;;;;;;;;;;;5.33;100.00;96857.94;5119199;28;19928;-60
2023/01/19 03:40:33;;;;;;;;;;;;;;;5.35;100.00;96864.56;5119026;28;19920;-60
2023/01/19 03:43:00;;;;;;;;;;;;;;;5.31;100.00;96862.69;5122372;28;19924;-61
2023/01/19 03:45:26;;;;;;;;;;;;;;;5.35;100.00;96869.84;5122612;28;19963;-61
2023/01/19 03:47:54;;;;;;;;;;;;;;;5.36;100.00;96857.44;5120044;28;19928;-61
2023/01/19 03:50:23;;;;;;;;;;;;;;;5.33;100.00;96861.38;5118644;28;19924;-61
2023/01/19 03:52:59;;;;;;;;;;;;;;;5.33;100.00;96855.28;5120428;28;19935;-61
2023/01/19 03:55:26;;;;;;;;;;;;;;;5.35;100.00;96853.22;5121993;28;20022;-61
2023/01/19 03:57:52;;;;;;;;;;;;;;;5.37;100.00;96854.53;5119423;28;20038;-61
2023/01/19 04:00:19;;;;;;;;;;;;;;;5.39;100.00;96855.06;5118316;28;19924;-61
2023/01/19 04:02:45;;;;;;;;;;;;;;;5.39;100.00;96854.25;5119563;28;19996;-61
2023/01/19 04:05:13;;;;;;;;;;;;;;;5.40;100.00;96855.88;5123438;27;19988;-61
2023/01/19 04:07:39;;;;;;;;;;;;;;;5.43;100.00;96850.06;5121190;28;19930;-61
2023/01/19 04:10:11;;;;;;;;;;;;;;;5.37;100.00;96851.09;5118310;28;19924;-61
2023/01/19 04:12:37;;;;;;;;;;;;;;;5.33;100.00;96856.09;5118271;28;19951;-61
2023/01/19 04:15:04;;;;;;;;;;;;;;;5.28;100.00;96856.06;5121794;28;20377;-61
2023/01/19 04:17:31;;;;;;;;;;;;;;;5.32;100.00;96857.13;5121678;28;19979;-61
2023/01/19 04:19:57;;;;;;;;;;;;;;;5.31;100.00;96855.56;5099873;28;19924;-60
2023/01/19 04:22:25;;;;;;;;;;;;;;;5.34;100.00;96868.28;5118014;28;20015;-60
2023/01/19 04:24:51;;;;;;;;;;;;;;;5.28;100.00;96868.50;5120210;28;19928;-60
2023/01/19 04:27:18;;;;;;;;;;;;;;;5.24;100.00;96870.06;5121591;28;19930;-60
2023/01/19 04:29:44;;;;;;;;;;;;;;;5.16;100.00;96868.69;5120175;28;19927;-60
2023/01/19 04:32:12;;;;;;;;;;;;;;;5.13;100.00;96863.09;5118117;28;19988;-60
2023/01/19 04:34:39;;;;;;;;;;;;;;;5.15;100.00;96859.16;5118521;28;20000;-61
2023/01/19 04:37:07;;;;;;;;;;;;;;;5.16;100.00;96855.47;5113778;28;19955;-60
2023/01/19 04:39:35;;;;;;;;;;;;;;;5.08;100.00;96853.25;5121320;28;19923;-60
2023/01/19 04:42:01;;;;;;;;;;;;;;;5.03;100.00;96842.66;5109383;28;19980;-60
2023/01/19 04:44:27;;;;;;;;;;;;;;;5.05;100.00;96848.47;5109414;28;19959;-60
2023/01/19 04:46:54;;;;;;;;;;;;;;;4.90;100.00;96846.53;5109512;28;19967;-61
2023/01/19 04:49:20;;;;;;;;;;;;;;;4.55;100.00;96848.84;5109452;28;19928;-61
2023/01/19 04:51:47;;;;;;;;;;;;;;;4.60;100.00;96845.47;5109190;28;19987;-61
2023/01/19 04:54:13;;;;;;;;;;;;;;;4.80;100.00;96840.34;5109489;28;20584;-61
2023/01/19 04:56:41;;;;;;;;;;;;;;;4.86;100.00;96841.97;5109233;28;19952;-61
2023/01/19 04:59:07;;;;;;;;;;;;;;;4.66;100.00;96839.16;5109387;28;19946;-61
2023/01/19 05:01:33;;;;;;;;;;;;;;;4.65;100.00;96845.50;5109365;28;19920;-61
2023/01/19 05:04:00;;;;;;;;;;;;;;;4.72;100.00;96848.75;5099722;28;19924;-61
2023/01/19 05:06:26;;;;;;;;;;;;;;;4.62;100.00;96848.63;5110044;28;19942;-61
2023/01/19 05:08:53;;;;;;;;;;;;;;;4.77;100.00;96846.94;5119917;28;19999;-61
2023/01/19 05:11:19;;;;;;;;;;;;;;;4.85;100.00;96843.84;5121017;28;19928;-61
2023/01/19 05:13:47;;;;;;;;;;;;;;;4.93;100.00;96863.72;5119440;28;19935;-61
2023/01/19 05:16:13;;;;;;;;;;;;;;;5.02;100.00;96864.06;5117738;28;19988;-61
2023/01/19 05:18:40;;;;;;;;;;;;;;;4.88;100.00;96866.34;5118213;28;19952;-61
2023/01/19 05:21:06;;;;;;;;;;;;;;;4.90;100.00;96866.88;5121178;28;19951;-61
2023/01/19 05:23:33;;;;;;;;;;;;;;;4.78;100.00;96874.19;5120941;28;20036;-61
2023/01/19 05:26:00;;;;;;;;;;;;;;;4.79;100.00;96871.31;5117694;28;19971;-60
2023/01/19 05:28:27;;;;;;;;;;;;;;;4.82;100.00;96870.81;5117445;28;19987;-60
2023/01/19 05:30:54;;;;;;;;;;;;;;;4.72;100.00;96869.91;5120174;28;19931;-61
2023/01/19 05:33:21;;;;;;;;;;;;;;;4.80;100.00;96875.53;5124727;28;19955;-60
2023/01/19 05:35:49;;;;;;;;;;;;;;;4.81;100.00;96882.41;5115301;28;19930;-61
2023/01/19 05:38:15;;;;;;;;;;;;;;;4.87;100.00;96872.69;5121307;28;20387;-60
2023/01/19 05:40:41;;;;;;;;;;;;;;;4.95;100.00;96877.53;5121895;28;19963;-61
2023/01/19 05:43:08;;;;;;;;;;;;;;;5.02;100.00;96870.16;5124579;28;19970;-61
2023/01/19 05:45:34;;;;;;;;;;;;;;;5.08;100.00;96884.22;5140504;27;19942;-61
2023/01/19 05:48:02;;;;;;;;;;;;;;;5.12;100.00;96886.13;5112884;28;19931;-61
2023/01/19 05:50:28;;;;;;;;;;;;;;;5.01;100.00;96887.09;5112695;28;19984;-61
2023/01/19 05:52:54;;;;;;;;;;;;;;;5.02;100.00;96896.59;5112586;28;19963;-61
2023/01/19 05:55:21;;;;;;;;;;;;;;;4.99;100.00;96881.25;5112477;28;19924;-61
2023/01/19 05:57:47;;;;;;;;;;;;;;;5.01;100.00;96895.03;5102855;28;20015;-62
2023/01/19 06:00:14;;;;;;;;;;;;;;;5.05;100.00;96901.41;5118371;28;19991;-61
2023/01/19 06:02:41;;;;;;;;;;;;;;;5.07;100.00;96896.66;5124514;28;20583;-61
2023/01/19 06:05:09;;;;;;;;;;;;;;;5.07;100.00;96912.53;5121264;28;19998;-61
2023/01/19 06:07:35;;;;;;;;;;;;;;;5.07;100.00;96914.38;5121053;28;19987;-62
2023/01/19 06:10:02;;;;;;;;;;;;;;;5.10;100.00;96911.25;5120929;28;19983;-61
2023/01/19 06:12:28;;;;;;;;;;;;;;;5.12;100.00;96917.06;5121061;28;19924;-61
2023/01/19 06:14:54;;;;;;;;;;;;;;;5.06;100.00;96924.16;5124015;28;19948;-60
2023/01/19 06:17:21;;;;;;;;;;;;;;;5.11;100.00;96926.84;5124499;28;19971;-60
2023/01/19 06:19:47;;;;;;;;;;;;;;;5.09;100.00;96926.31;5122430;28;19927;-60
2023/01/19 06:22:15;;;;;;;;;;;;;;;5.06;100.00;96928.66;5120699;28;20352;-61
2023/01/19 06:24:41;;;;;;;;;;;;;;;5.05;100.00;96932.34;5103092;28;20004;-61
2023/01/19 06:27:08;;;;;;;;;;;;;;;5.04;100.00;96926.28;5123952;28;19959;-61
2023/01/19 06:29:34;;;;;;;;;;;;;;;5.03;100.00;96931.81;5123983;28;19923;-61
2023/01/19 06:32:01;;;;;;;;;;;;;;;5.01;100.00;96940.00;5112032;28;20400;-61
2023/01/19 06:34:27;;;;;;;;;;;;;;;5.04;100.00;96946.66;5111831;28;19928;-61
2023/01/19 06:36:54;;;;;;;;;;;;;;;5.07;100.00;96951.44;5115347;28;19950;-61
2023/01/19 06:39:21;;;;;;;;;;;;;;;5.06;100.00;96955.94;5123819;28;20340;-61
2023/01/19 06:41:48;;;;;;;;;;;;;;;5.04;100.00;96954.59;5121295;28;20409;-61
2023/01/19 06:44:14;;;;;;;;;;;;;;;5.00;100.00;96956.94;5120091;28;19924;-61
2023/01/19 06:46:41;;;;;;;;;;;;;;;5.00;100.00;96964.06;5120690;28;19963;-61
2023/01/19 06:49:07;;;;;;;;;;;;;;;4.97;100.00;96965.38;5123854;28;19959;-61
2023/01/19 06:51:33;;;;;;;;;;;;;;;4.95;100.00;96970.13;5123432;28;19928;-61
2023/01/19 06:54:00;;;;;;;;;;;;;;;4.93;100.00;96974.84;5120048;28;19935;-61
2023/01/19 06:56:28;;;;;;;;;;;;;;;4.94;100.00;96978.28;5119945;28;19924;-60
2023/01/19 06:58:54;;;;;;;;;;;;;;;5.01;100.00;96982.34;5122915;28;19957;-60
2023/01/19 07:01:21;;;;;;;;;;;;;;;4.96;100.00;96982.28;5123140;28;19934;-60
2023/01/19 07:03:47;;;;;;;;;;;;;;;4.94;100.00;96988.88;5121326;28;19970;-60
2023/01/19 07:06:13;;;;;;;;;;;;;;;4.88;100.00;96995.97;5121328;27;19935;-60
2023/01/19 07:08:40;;;;;;;;;;;;;;;4.83;100.00;96993.25;5120033;28;20015;-62
2023/01/19 07:11:07;;;;;;;;;;;;;;;4.73;100.00;96993.97;5123206;28;19947;-62
2023/01/19 07:13:35;;;;;;;;;;;;;;;4.69;100.00;96999.97;5122902;28;19935;-62
2023/01/19 07:16:03;;;;;;;;;;;;;;;4.63;100.00;97014.19;5111130;28;19924;-61
2023/01/19 07:18:30;;;;;;;;;;;;;;;4.64;100.00;97016.56;5111136;28;19946;-61
2023/01/19 07:20:57;;;;;;;;;;;;;;;4.64;100.00;97015.81;5111302;28;20019;-61
2023/01/19 07:23:23;;;;;;;;;;;;;;;4.64;100.00;97021.84;5111280;28;19924;-62
2023/01/19 07:25:50;;;;;;;;;;;;;;;4.44;100.00;97026.09;5110963;28;19951;-61
2023/01/19 07:28:17;;;;;;;;;;;;;;;4.47;100.00;97018.50;5111359;28;19924;-61
2023/01/19 07:30:45;;;;;;;;;;;;;;;4.56;100.00;97018.84;5111059;28;19932;-61
2023/01/19 07:33:12;;;;;;;;;;;;;;;4.55;100.00;97025.22;5111236;28;19982;-61
2023/01/19 07:35:38;;;;;;;;;;;;;;;4.08;100.00;97032.78;5120935;27;19931;-61
2023/01/19 07:38:05;;;;;;;;;;;;;;;4.38;100.00;97029.72;5119534;28;19928;-60
2023/01/19 07:40:32;;;;;;;;;;;;;;;4.59;100.00;97028.94;5119328;28;19924;-60
2023/01/19 07:42:58;;;;;;;;;;;;;;;4.69;100.00;97044.94;5122330;28;19984;-60
2023/01/19 07:45:26;;;;;;;;;;;;;;;4.76;100.00;97037.63;5122854;28;19923;-61
2023/01/19 07:47:54;;;;;;;;;;;;;;;4.72;100.00;97045.25;5120269;28;19969;-61
2023/01/19 07:50:23;;;;;;;;;;;;;;;4.65;100.00;97044.63;5119129;28;19924;-61
2023/01/19 07:52:52;;;;;;;;;;;;;;;4.79;100.00;97042.41;5120607;28;19924;-61
2023/01/19 07:55:18;;;;;;;;;;;;;;;4.78;100.00;97043.47;5121757;28;19920;-61
2023/01/19 07:57:45;;;;;;;;;;;;;;;4.79;100.00;97039.78;5121232;28;19935;-61
2023/01/19 08:00:13;;;;;;;;;;;;;;;4.59;100.00;97050.09;5119105;28;19920;-61
2023/01/19 08:02:40;;;;;;;;;;;;;;;4.70;100.00;97047.34;5119489;28;19955;-61
2023/01/19 08:05:08;;;;;;;;;;;;;;;4.72;100.00;97045.25;5124467;27;19927;-61
2023/01/19 08:07:34;;;;;;;;;;;;;;;4.72;100.00;97045.25;5122509;28;19970;-61
2023/01/19 08:10:00;;;;;;;;;;;;;;;4.66;100.00;97051.53;5100610;28;19992;-61
2023/01/19 08:12:27;;;;;;;;;;;;;;;4.80;100.00;97047.44;5118954;28;19964;-61
2023/01/19 08:14:53;;;;;;;;;;;;;;;4.63;100.00;97048.56;5121477;28;19927;-61
2023/01/19 08:17:19;;;;;;;;;;;;;;;4.76;100.00;97053.50;5122418;28;19950;-61
2023/01/19 08:19:46;;;;;;;;;;;;;;;4.86;100.00;97051.75;5102630;28;20637;-61
2023/01/19 08:22:13;;;;;;;;;;;;;;;4.59;100.00;97055.38;5119054;28;20006;-60
2023/01/19 08:24:40;;;;;;;;;;;;;;;4.62;100.00;97066.28;5119193;28;19995;-60
2023/01/19 08:27:08;;;;;;;;;;;;;;;4.88;100.00;97062.09;5121796;28;19924;-60
2023/01/19 08:29:35;;;;;;;;;;;;;;;4.87;100.00;97065.78;5121726;28;19988;-60
2023/01/19 08:32:01;;;;;;;;;;;;;;;4.86;100.00;97074.75;5121727;28;19920;-60
2023/01/19 08:34:29;;;;;;;;;;;;;;;4.97;100.00;97068.53;5121750;28;20522;-60
2023/01/19 08:36:55;;;;;;;;;;;;;;;4.94;100.00;97060.31;5122608;27;19930;-60
2023/01/19 08:39:23;;;;;;;;;;;;;;;4.95;100.00;97070.66;5121850;28;19996;-60
2023/01/19 08:41:49;;;;;;;;;;;;;;;4.97;100.00;97068.53;5119454;28;19927;-60
2023/01/19 08:44:16;;;;;;;;;;;;;;;4.87;100.00;97065.78;5099971;28;19924;-60
2023/01/19 08:46:42;;;;;;;;;;;;;;;4.89;100.00;97061.03;5118740;28;19983;-60
2023/01/19 08:49:09;;;;;;;;;;;;;;;4.92;100.00;97063.19;5121449;28;19924;-60
2023/01/19 08:51:35;;;;;;;;;;;;;;;4.86;100.00;97064.16;5121356;28;19927;-60
2023/01/19 08:54:02;;;;;;;;;;;;;;;4.85;100.00;97071.34;5109265;28;19987;-60
2023/01/19 08:56:30;;;;;;;;;;;;;;;4.88;100.00;97076.13;5109461;28;20028;-60
2023/01/19 08:58:56;;;;;;;;;;;;;;;4.83;100.00;97067.31;5109448;28;19959;-61
2023/01/19 09:01:24;;;;;;;;;;;;;;;4.78;100.00;97073.34;5099778;28;19935;-61
2023/01/19 09:03:50;;;;;;;;;;;;;;;4.33;100.00;97070.91;5109389;28;19927;-61
2023/01/19 09:06:18;;;;;;;;;;;;;;;4.39;100.00;97082.38;5119986;28;19970;-61
2023/01/19 09:08:44;;;;;;;;;;;;;;;4.36;100.00;97075.69;5118898;28;19967;-61
2023/01/19 09:11:11;;;;;;;;;;;;;;;4.53;100.00;97078.31;5121909;28;19924;-61
2023/01/19 09:13:40;;;;;;;;;;;;;;;4.66;100.00;97080.59;5121195;28;19972;-61
2023/01/19 09:16:07;;;;;;;;;;;;;;;4.73;100.00;97083.06;5118033;28;19998;-61
2023/01/19 09:18:34;;;;;;;;;;;;;;;4.57;100.00;97084.72;5117931;28;19950;-61
2023/01/19 09:21:01;;;;;;;;;;;;;;;4.76;100.00;97095.81;5121386;28;20681;-61
2023/01/19 09:23:27;;;;;;;;;;;;;;;4.57;100.00;97091.84;5121226;28;19924;-61
2023/01/19 09:25:55;;;;;;;;;;;;;;;4.74;100.00;97095.25;5118758;28;19987;-61
2023/01/19 09:28:22;;;;;;;;;;;;;;;4.67;100.00;97094.63;5117746;28;19983;-61
2023/01/19 09:30:50;;;;;;;;;;;;;;;4.85;100.00;97089.84;5119227;28;19987;-61
2023/01/19 09:33:17;;;;;;;;;;;;;;;4.85;100.00;97092.50;5121191;28;19966;-61
2023/01/19 09:35:44;;;;;;;;;;;;;;;4.77;100.00;97094.75;5122099;28;19970;-61
2023/01/19 09:38:11;;;;;;;;;;;;;;;4.92;100.00;97088.88;5117738;28;19924;-61
2023/01/19 09:40:41;;;;;;;;;;;;;;;4.66;100.00;97100.97;5117534;28;19980;-61
2023/01/19 09:43:12;;;;;;;;;;;;;;;4.80;100.00;97107.47;5103076;28;20124;-61
2023/01/19 09:45:44;;;;;;;;;;;;;;;4.60;100.00;97101.94;5120510;28;19970;-61
2023/01/19 09:48:21;;;;;;;;;;;;;;;4.54;100.00;97102.91;5117686;28;19924;-61
2023/01/19 09:50:48;;;;;;;;;;;;;;;4.52;100.00;97102.38;5119073;28;19978;-61
2023/01/19 09:53:17;;;;;;;;;;;;;;;4.41;100.00;97097.97;5121067;28;19934;-61
2023/01/19 09:55:44;;;;;;;;;;;;;;;4.46;100.00;97098.03;5101559;28;19924;-60
2023/01/19 09:58:14;;;;;;;;;;;;;;;4.32;100.00;97101.03;5117501;28;20067;-61
2023/01/19 10:00:41;;;;;;;;;;;;;;;4.36;100.00;97088.13;5117724;28;19931;-61
2023/01/19 10:03:12;;;;;;;;;;;;;;;4.22;100.00;97097.44;5120886;28;19990;-61
2023/01/19 10:05:44;;;;;;;;;;;;;;;4.45;100.00;97102.53;5122183;28;19982;-60
2023/01/19 10:08:17;;;;;;;;;;;;;;;4.75;100.00;97100.28;5117364;28;20625;-60
2023/01/19 10:10:46;;;;;;;;;;;;;;;4.41;100.00;97095.31;5118196;28;19925;-60
2023/01/19 10:13:18;;;;;;;;;;;;;;;4.25;100.00;97095.13;5102818;28;19974;-60
2023/01/19 10:15:48;;;;;;;;;;;;;;;4.36;100.00;97094.19;5119617;28;19999;-60
2023/01/19 10:18:17;;;;;;;;;;;;;;;4.32;100.00;97097.59;5120022;28;19939;-61
2023/01/19 10:20:49;;;;;;;;;;;;;;;4.42;100.00;97099.56;5121685;28;19983;-61
2023/01/19 10:23:21;;;;;;;;;;;;;;;4.35;100.00;97084.69;5124174;28;19925;-61
2023/01/19 10:25:47;;;;;;;;;;;;;;;4.31;100.00;97086.22;5122735;28;20062;-61
2023/01/19 10:28:16;;;;;;;;;;;;;;;4.62;100.00;97087.41;5120625;28;19924;-61
2023/01/19 10:30:44;;;;;;;;;;;;;;;4.88;100.00;97086.72;5121388;28;19920;-60
2023/01/19 10:33:12;;;;;;;;;;;;;;;5.07;100.00;97094.31;5124175;28;19923;-60
2023/01/19 10:35:38;;;;;;;;;;;;;;;4.73;100.00;97083.88;5125775;27;19974;-59
2023/01/19 10:38:06;;;;;;;;;;;;;;;4.46;100.00;97082.16;5120587;28;19963;-60
2023/01/19 10:40:36;;;;;;;;;;;;;;;4.48;100.00;97085.38;5120686;28;19924;-60
2023/01/19 10:43:22;;;;;;;;;;;;;;;4.67;100.00;97092.00;5112037;28;19928;-60
2023/01/19 10:45:49;;;;;;;;;;;;;;;4.45;100.00;97091.16;5111396;28;19920;-60
2023/01/19 10:48:16;;;;;;;;;;;;;;;4.65;100.00;97088.78;5111771;28;19959;-60
2023/01/19 10:50:42;;;;;;;;;;;;;;;4.78;100.00;97078.66;5111611;28;19924;-60
2023/01/19 10:53:20;;;;;;;;;;;;;;;4.82;100.00;97069.19;5111865;28;19959;-60
2023/01/19 10:55:46;;;;;;;;;;;;;;;4.90;100.00;97067.94;5111398;28;19919;-60
2023/01/19 10:58:27;;;;;;;;;;;;;;;5.11;100.00;97072.41;5111723;28;19963;-60
2023/01/19 11:00:54;;;;;;;;;;;;;;;5.12;100.00;97068.72;5112003;28;19928;-61
2023/01/19 11:03:22;;;;;;;;;;;;;;;4.77;100.00;97069.09;5111933;28;19919;-61
2023/01/19 11:05:49;;;;;;;;;;;;;;;4.82;100.00;97069.19;5122008;27;19966;-61
2023/01/19 11:08:23;;;;;;;;;;;;;;;4.68;100.00;97078.50;5120265;28;19935;-60
2023/01/19 11:10:52;;;;;;;;;;;;;;;4.86;100.00;97069.47;5103476;28;19924;-61
2023/01/19 11:13:19;;;;;;;;;;;;;;;4.75;100.00;97068.56;5123696;28;19924;-60
2023/01/19 11:15:49;;;;;;;;;;;;;;;4.80;100.00;97070.44;5122300;28;19952;-61
2023/01/19 11:18:23;;;;;;;;;;;;;;;4.81;100.00;97061.47;5120342;28;19967;-61
2023/01/19 11:20:51;;;;;;;;;;;;;;;5.12;100.00;97059.97;5121843;28;19920;-61
2023/01/19 11:23:25;;;;;;;;;;;;;;;5.18;100.00;97061.63;5123498;28;19924;-61
2023/01/19 11:25:53;;;;;;;;;;;;;;;5.25;100.00;97060.38;5121146;28;19927;-61
2023/01/19 11:28:20;;;;;;;;;;;;;;;5.25;100.00;97068.34;5119933;28;19924;-61
2023/01/19 11:30:56;;;;;;;;;;;;;;;4.99;100.00;97055.84;5121096;28;19920;-60
2023/01/19 11:33:24;;;;;;;;;;;;;;;4.70;100.00;97052.63;5123162;28;19924;-61
2023/01/19 11:35:50;;;;;;;;;;;;;;;4.81;100.00;97053.53;5122857;27;19992;-61
2023/01/19 11:38:18;;;;;;;;;;;;;;;4.54;100.00;97053.47;5119611;28;19967;-61
2023/01/19 11:40:50;;;;;;;;;;;;;;;4.80;100.00;97049.28;5120555;28;19925;-61
2023/01/19 11:43:17;;;;;;;;;;;;;;;4.59;100.00;97048.25;5123096;28;19951;-60
2023/01/19 11:45:44;;;;;;;;;;;;;;;4.38;100.00;97049.03;5122022;28;19992;-61
2023/01/19 11:48:16;;;;;;;;;;;;;;;4.67;100.00;97041.75;5119765;28;19924;-60
2023/01/19 11:50:44;;;;;;;;;;;;;;;4.92;100.00;97042.00;5120169;28;19963;-60
2023/01/19 11:53:14;;;;;;;;;;;;;;;5.02;100.00;97044.78;5123075;28;20625;-61
2023/01/19 11:55:43;;;;;;;;;;;;;;;5.24;100.00;97047.38;5122105;28;19991;-60
2023/01/19 11:58:13;;;;;;;;;;;;;;;5.20;100.00;97041.00;5119405;28;19944;-60
2023/01/19 12:00:43;;;;;;;;;;;;;;;5.35;100.00;97039.28;5119436;28;19924;-61
2023/01/19 12:03:12;;;;;;;;;;;;;;;4.84;100.00;97034.53;5122851;28;19957;-61
2023/01/19 12:05:41;;;;;;;;;;;;;;;4.78;100.00;97040.81;5105956;28;20412;-61
2023/01/19 12:08:13;;;;;;;;;;;;;;;4.94;100.00;97033.84;5119145;28;19920;-61
2023/01/19 12:10:42;;;;;;;;;;;;;;;4.72;100.00;97033.88;5119059;28;19954;-61
2023/01/19 12:13:17;;;;;;;;;;;;;;;5.08;100.00;97035.03;5104314;28;19924;-60
2023/01/19 12:15:44;;;;;;;;;;;;;;;4.93;100.00;97034.88;5121020;28;19987;-60
2023/01/19 12:18:15;;;;;;;;;;;;;;;4.71;100.00;97035.69;5118650;28;19958;-60
2023/01/19 12:20:43;;;;;;;;;;;;;;;4.95;100.00;97036.25;5119093;28;19963;-61
2023/01/19 12:23:18;;;;;;;;;;;;;;;5.11;100.00;97027.41;5122171;28;19975;-61
2023/01/19 12:25:53;;;;;;;;;;;;;;;5.18;100.00;97032.50;5102699;28;19974;-61
2023/01/19 12:28:22;;;;;;;;;;;;;;;5.41;100.00;97026.91;5118651;28;19988;-61
2023/01/19 12:30:50;;;;;;;;;;;;;;;5.41;100.00;97014.47;5120161;28;19924;-61
2023/01/19 12:33:20;;;;;;;;;;;;;;;5.34;100.00;97021.03;5122105;28;19923;-60
2023/01/19 12:35:53;;;;;;;;;;;;;;;5.35;100.00;97017.34;5122382;27;19962;-61
2023/01/19 12:38:23;;;;;;;;;;;;;;;4.89;100.00;97013.41;5118352;28;19928;-61
2023/01/19 12:40:50;;;;;;;;;;;;;;;4.97;100.00;97009.53;5119876;28;19999;-60
2023/01/19 12:43:16;;;;;;;;;;;;;;;5.18;100.00;97004.19;5122223;28;19991;-62
2023/01/19 12:45:46;;;;;;;;;;;;;;;5.42;100.00;97008.13;5121082;28;20539;-61
2023/01/19 12:48:23;;;;;;;;;;;;;;;5.22;100.00;97007.16;5118676;28;19955;-61
2023/01/19 12:50:50;;;;;;;;;;;;;;;5.11;100.00;97008.09;5120335;28;19962;-61
2023/01/19 12:53:19;;;;;;;;;;;;;;;5.22;100.00;97002.66;5121889;28;19954;-61
2023/01/19 12:55:46;;;;;;;;;;;;;;;5.16;100.00;97001.00;5113654;28;19931;-61
2023/01/19 12:58:15;;;;;;;;;;;;;;;5.12;100.00;96999.91;5122221;28;19960;-61
2023/01/19 13:00:43;;;;;;;;;;;;;;;5.14;100.00;97007.59;5121314;28;19933;-61
2023/01/19 13:03:28;;;;;;;;;;;;;;;5.18;100.00;97006.84;5118654;28;20022;-59